createdAt,value
2022-12-22T00:01:08.523Z,86.92
2022-12-22T00:03:56.538Z,86.61
2022-12-22T00:06:43.244Z,86.24
2022-12-22T00:09:30.239Z,86.82
2022-12-22T00:12:16.664Z,86.60
2022-12-22T00:15:04.406Z,86.59
2022-12-22T00:17:50.907Z,86.33
2022-12-22T00:20:40.239Z,85.85
2022-12-22T00:23:29.237Z,86.62
2022-12-22T00:26:16.427Z,87.10
2022-12-22T00:29:03.757Z,86.65
2022-12-22T00:31:50.698Z,87.22
2022-12-22T00:34:39.992Z,87.14
2022-12-22T00:37:31.915Z,87.24
2022-12-22T00:40:19.900Z,88.64
2022-12-22T00:43:07.075Z,87.88
2022-12-22T00:46:00.973Z,88.97
2022-12-22T00:48:47.864Z,88.71
2022-12-22T00:51:35.271Z,88.15
2022-12-22T00:54:27.165Z,89.38
2022-12-22T00:57:14.072Z,89.46
2022-12-22T01:00:01.218Z,88.63
2022-12-22T01:02:47.744Z,89.34
2022-12-22T01:05:35.027Z,89.01
2022-12-22T01:08:22.236Z,89.48
2022-12-22T01:11:10.612Z,90.07
2022-12-22T01:13:57.048Z,89.78
2022-12-22T01:16:44.215Z,88.31
2022-12-22T01:19:30.340Z,88.78
2022-12-22T01:22:17.527Z,88.12
2022-12-22T01:25:04.711Z,88.41
2022-12-22T01:27:52.790Z,88.22
2022-12-22T01:30:39.306Z,89.08
2022-12-22T01:33:29.627Z,88.78
2022-12-22T01:36:16.535Z,89.19
2022-12-22T01:39:03.131Z,88.35
2022-12-22T01:41:49.721Z,87.90
2022-12-22T01:44:38.165Z,88.17
2022-12-22T01:47:53.294Z,89.74
2022-12-22T01:50:45.675Z,89.53
2022-12-22T01:53:37.627Z,90.43
2022-12-22T01:56:25.401Z,88.94
2022-12-22T01:59:14.313Z,89.46
2022-12-22T02:02:03.718Z,89.80
2022-12-22T02:04:54.546Z,89.87
2022-12-22T02:07:59.164Z,89.01
2022-12-22T02:11:01.602Z,88.34
2022-12-22T02:13:58.579Z,89.15
2022-12-22T02:16:50.639Z,88.50
2022-12-22T02:19:55.327Z,89.01
2022-12-22T02:22:52.800Z,88.96
2022-12-22T02:25:46.575Z,87.64
2022-12-22T02:28:35.088Z,87.78
2022-12-22T02:31:24.780Z,87.81
2022-12-22T02:34:11.580Z,88.93
2022-12-22T02:37:07.585Z,89.25
2022-12-22T02:40:02.086Z,89.98
2022-12-22T02:42:53.415Z,89.43
2022-12-22T02:45:51.746Z,89.54
2022-12-22T02:48:43.615Z,88.66
2022-12-22T02:51:36.212Z,89.33
2022-12-22T02:54:25.847Z,89.22
2022-12-22T02:57:12.423Z,88.50
2022-12-22T02:59:58.917Z,88.82
2022-12-22T03:02:46.918Z,88.09
2022-12-22T03:05:34.198Z,88.06
2022-12-22T03:08:20.633Z,87.60
2022-12-22T03:11:07.563Z,87.85
2022-12-22T03:13:54.368Z,87.51
2022-12-22T03:16:41.334Z,87.03
2022-12-22T03:19:29.599Z,86.10
2022-12-22T03:22:16.956Z,86.07
2022-12-22T03:25:03.382Z,87.52
2022-12-22T03:27:33.108Z,85.96
2022-12-22T03:30:02.227Z,86.94
2022-12-22T03:34:18.803Z,86.55
2022-12-22T03:36:49.265Z,85.43
2022-12-22T03:39:18.748Z,86.70
2022-12-22T03:42:05.430Z,86.65
2022-12-22T03:44:52.591Z,87.35
2022-12-22T03:47:21.698Z,89.41
2022-12-22T03:49:51.092Z,88.12
2022-12-22T03:52:21.528Z,87.97
2022-12-22T03:54:51.503Z,87.60
2022-12-22T03:57:20.643Z,88.70
2022-12-22T03:59:50.083Z,89.18
2022-12-22T04:02:19.276Z,89.56
2022-12-22T04:04:48.744Z,88.72
2022-12-22T04:07:17.866Z,88.56
2022-12-22T04:10:02.646Z,89.04
2022-12-22T04:12:49.301Z,89.06
2022-12-22T04:15:18.771Z,89.22
2022-12-22T04:17:47.805Z,88.86
2022-12-22T04:20:17.561Z,89.18
2022-12-22T04:22:47.050Z,89.05
2022-12-22T04:25:18.170Z,89.19
2022-12-22T04:27:48.771Z,89.69
2022-12-22T04:30:18.586Z,90.03
2022-12-22T04:32:47.747Z,89.46
2022-12-22T04:35:17.097Z,89.40
2022-12-22T04:37:46.330Z,89.67
2022-12-22T04:40:17.201Z,89.92
2022-12-22T04:42:46.414Z,89.92
2022-12-22T04:45:15.915Z,89.47
2022-12-22T04:47:45.069Z,89.30
2022-12-22T04:50:14.393Z,89.83
2022-12-22T04:52:43.670Z,89.11
2022-12-22T04:55:13.120Z,89.08
2022-12-22T04:57:43.701Z,90.03
2022-12-22T05:00:14.222Z,89.89
2022-12-22T05:02:43.640Z,88.32
2022-12-22T05:05:13.262Z,87.94
2022-12-22T05:07:43.365Z,89.18
2022-12-22T05:10:13.753Z,88.53
2022-12-22T05:12:56.202Z,89.01
2022-12-22T05:15:27.306Z,88.40
2022-12-22T05:17:57.125Z,87.18
2022-12-22T05:20:26.774Z,87.13
2022-12-22T05:22:56.643Z,86.58
2022-12-22T05:25:29.855Z,86.37
2022-12-22T05:28:03.589Z,86.23
2022-12-22T05:30:33.361Z,86.47
2022-12-22T05:33:03.673Z,87.05
2022-12-22T05:35:33.222Z,86.99
2022-12-22T05:38:02.361Z,87.31
2022-12-22T05:40:32.077Z,87.47
2022-12-22T05:43:02.720Z,87.45
2022-12-22T05:45:32.398Z,86.38
2022-12-22T05:48:01.558Z,86.43
2022-12-22T05:50:31.800Z,86.43
2022-12-22T05:53:06.688Z,86.72
2022-12-22T05:55:36.244Z,86.94
2022-12-22T05:58:06.753Z,86.93
2022-12-22T06:00:36.281Z,85.78
2022-12-22T06:03:05.729Z,86.67
2022-12-22T06:05:35.349Z,85.92
2022-12-22T06:08:04.549Z,86.41
2022-12-22T06:10:34.030Z,84.96
2022-12-22T06:13:05.349Z,84.48
2022-12-22T06:15:34.937Z,86.21
2022-12-22T06:18:04.472Z,86.29
2022-12-22T06:20:33.910Z,86.90
2022-12-22T06:23:03.023Z,87.13
2022-12-22T06:25:32.471Z,87.24
2022-12-22T06:28:01.957Z,87.28
2022-12-22T06:30:33.866Z,87.85
2022-12-22T06:33:03.860Z,87.88
2022-12-22T06:35:33.268Z,87.78
2022-12-22T06:38:02.368Z,86.65
2022-12-22T06:40:31.852Z,86.32
2022-12-22T06:43:10.079Z,87.13
2022-12-22T06:45:43.056Z,86.79
2022-12-22T06:48:13.853Z,86.99
2022-12-22T06:50:43.602Z,87.41
2022-12-22T06:53:13.539Z,86.58
2022-12-22T06:55:42.955Z,86.41
2022-12-22T06:58:12.178Z,86.68
2022-12-22T07:00:43.675Z,86.30
2022-12-22T07:03:13.150Z,86.01
2022-12-22T07:05:42.895Z,85.31
2022-12-22T07:08:11.949Z,85.65
2022-12-22T07:10:59.345Z,85.37
2022-12-22T07:13:31.981Z,85.38
2022-12-22T07:16:04.135Z,84.85
2022-12-22T07:18:34.732Z,85.61
2022-12-22T07:21:06.229Z,85.37
2022-12-22T07:23:35.467Z,85.42
2022-12-22T07:26:05.662Z,85.82
2022-12-22T07:28:35.545Z,85.69
2022-12-22T07:31:07.480Z,85.99
2022-12-22T07:33:36.557Z,86.98
2022-12-22T07:36:08.996Z,87.34
2022-12-22T07:38:40.344Z,87.04
2022-12-22T07:41:25.724Z,86.64
2022-12-22T07:43:55.608Z,86.75
2022-12-22T07:46:28.343Z,86.01
2022-12-22T07:49:15.132Z,86.86
2022-12-22T07:51:45.043Z,87.31
2022-12-22T07:54:16.375Z,87.40
2022-12-22T07:56:47.312Z,87.24
2022-12-22T07:59:17.229Z,87.23
2022-12-22T08:01:48.421Z,85.74
2022-12-22T08:04:18.376Z,86.27
2022-12-22T08:06:47.812Z,86.42
2022-12-22T08:09:21.515Z,85.63
2022-12-22T08:11:51.504Z,86.26
2022-12-22T08:14:20.799Z,86.63
2022-12-22T08:16:51.809Z,85.73
2022-12-22T08:19:21.201Z,85.38
2022-12-22T08:21:53.249Z,86.16
2022-12-22T08:24:22.826Z,86.52
2022-12-22T08:26:55.671Z,86.76
2022-12-22T08:29:30.079Z,85.57
2022-12-22T08:32:02.509Z,86.71
2022-12-22T08:34:31.892Z,86.75
2022-12-22T08:37:04.095Z,87.08
2022-12-22T08:39:39.208Z,86.66
2022-12-22T08:42:11.016Z,86.45
2022-12-22T08:44:40.292Z,86.34
2022-12-22T08:47:16.692Z,86.55
2022-12-22T08:49:46.446Z,88.16
2022-12-22T08:52:18.697Z,86.88
2022-12-22T08:54:48.663Z,87.03
2022-12-22T08:57:18.088Z,86.80
2022-12-22T08:59:48.171Z,86.11
2022-12-22T09:02:19.297Z,85.69
2022-12-22T09:04:48.477Z,86.25
2022-12-22T09:07:18.523Z,87.38
2022-12-22T09:09:47.798Z,87.30
2022-12-22T09:12:17.304Z,87.36
2022-12-22T09:14:46.434Z,86.66
2022-12-22T09:17:16.455Z,86.84
2022-12-22T09:19:47.186Z,87.07
2022-12-22T09:22:20.340Z,87.84
2022-12-22T09:24:52.744Z,87.14
2022-12-22T09:27:22.832Z,87.12
2022-12-22T09:29:52.347Z,88.07
2022-12-22T09:32:22.046Z,86.97
2022-12-22T09:34:52.970Z,87.01
2022-12-22T09:37:22.495Z,87.18
2022-12-22T09:39:51.800Z,86.26
2022-12-22T09:42:24.027Z,85.16
2022-12-22T09:44:53.372Z,86.48
2022-12-22T09:47:27.780Z,86.98
2022-12-22T09:49:59.189Z,88.56
2022-12-22T09:52:42.606Z,86.81
2022-12-22T09:55:31.327Z,86.70
2022-12-22T09:58:00.925Z,86.94
2022-12-22T10:00:30.487Z,86.53
2022-12-22T10:03:07.786Z,86.76
2022-12-22T10:05:45.569Z,87.22
2022-12-22T10:08:17.434Z,87.55
2022-12-22T10:10:46.992Z,86.70
2022-12-22T10:13:19.683Z,87.21
2022-12-22T10:15:50.005Z,86.54
2022-12-22T10:18:21.984Z,85.51
2022-12-22T10:21:11.257Z,84.63
2022-12-22T10:23:45.206Z,84.30
2022-12-22T10:26:33.868Z,84.95
2022-12-22T10:29:07.189Z,84.95
2022-12-22T10:31:40.055Z,85.12
2022-12-22T10:34:15.140Z,85.42
2022-12-22T10:36:50.169Z,85.61
2022-12-22T10:39:23.996Z,85.95
2022-12-22T10:41:55.699Z,85.63
2022-12-22T10:44:28.663Z,84.74
2022-12-22T10:46:59.385Z,84.53
2022-12-22T10:52:15.366Z,85.69
2022-12-22T10:54:46.322Z,85.65
2022-12-22T10:57:31.020Z,85.63
2022-12-22T11:00:02.079Z,86.48
2022-12-22T11:02:35.219Z,87.55
2022-12-22T11:05:08.562Z,86.68
2022-12-22T11:07:41.523Z,86.25
2022-12-22T11:10:20.282Z,86.14
2022-12-22T11:13:10.026Z,85.73
2022-12-22T11:15:48.646Z,85.40
2022-12-22T11:18:39.319Z,85.67
2022-12-22T11:21:18.720Z,85.07
2022-12-22T11:24:03.146Z,84.65
2022-12-22T11:26:43.040Z,84.27
2022-12-22T11:29:38.231Z,84.91
2022-12-22T11:32:22.764Z,84.70
2022-12-22T11:35:01.928Z,84.00
2022-12-22T11:37:40.555Z,84.60
2022-12-22T11:40:27.308Z,85.20
2022-12-22T11:43:12.063Z,84.22
2022-12-22T11:45:58.272Z,84.77
2022-12-22T11:48:54.813Z,84.86
2022-12-22T11:51:36.201Z,84.81
2022-12-22T11:54:35.335Z,84.73
2022-12-22T11:57:19.169Z,86.30
2022-12-22T11:59:57.086Z,85.61
2022-12-22T12:02:52.759Z,86.36
2022-12-22T12:05:39.261Z,87.13
2022-12-22T12:08:11.162Z,87.36
2022-12-22T12:10:46.343Z,87.79
2022-12-22T12:13:34.724Z,88.01
2022-12-22T12:16:17.865Z,87.55
2022-12-22T12:19:03.301Z,87.31
2022-12-22T12:21:43.029Z,87.19
2022-12-22T12:24:28.150Z,86.13
2022-12-22T12:27:07.236Z,87.24
2022-12-22T12:29:42.592Z,87.36
2022-12-22T12:32:19.246Z,87.01
2022-12-22T12:34:51.170Z,87.34
2022-12-22T12:37:26.551Z,87.57
2022-12-22T12:40:17.157Z,88.03
2022-12-22T12:42:48.808Z,88.28
2022-12-22T12:45:37.466Z,88.69
2022-12-22T12:48:42.724Z,89.06
2022-12-22T12:51:51.425Z,88.28
2022-12-22T12:54:39.949Z,88.47
2022-12-22T12:57:46.678Z,88.44
2022-12-22T13:00:30.723Z,88.00
2022-12-22T13:03:02.854Z,87.25
2022-12-22T13:05:36.600Z,88.79
2022-12-22T13:08:21.173Z,88.95
2022-12-22T13:11:52.701Z,89.25
2022-12-22T13:14:12.678Z,89.15
2022-12-22T13:16:42.404Z,89.51
2022-12-22T13:19:26.940Z,90.20
2022-12-22T13:21:58.055Z,89.81
2022-12-22T13:24:31.253Z,90.01
2022-12-22T13:27:11.183Z,89.72
2022-12-22T13:29:46.588Z,89.82
2022-12-22T13:32:29.673Z,90.70
2022-12-22T13:37:58.002Z,90.82
2022-12-22T13:40:32.117Z,90.91
2022-12-22T13:43:06.419Z,91.52
2022-12-22T13:45:40.106Z,90.92
2022-12-22T13:48:15.525Z,90.01
2022-12-22T13:50:49.792Z,91.26
2022-12-22T13:54:07.348Z,91.40
2022-12-22T13:56:19.221Z,90.71
2022-12-22T13:58:52.826Z,90.95
2022-12-22T14:01:22.438Z,90.44
2022-12-22T14:04:01.019Z,90.71
2022-12-22T14:06:35.900Z,90.69
2022-12-22T14:09:14.519Z,90.10
2022-12-22T14:11:51.563Z,91.02
2022-12-22T14:14:26.193Z,90.85
2022-12-22T14:16:58.723Z,90.67
2022-12-22T14:19:32.029Z,90.38
2022-12-22T14:22:08.479Z,89.96
2022-12-22T14:24:43.442Z,90.57
2022-12-22T14:27:20.980Z,90.81
2022-12-22T14:29:50.927Z,90.43
2022-12-22T14:32:36.685Z,90.00
2022-12-22T14:35:16.505Z,90.46
2022-12-22T14:37:47.540Z,90.43
2022-12-22T14:40:31.051Z,90.73
2022-12-22T14:43:02.955Z,90.92
2022-12-22T14:45:32.916Z,91.32
2022-12-22T14:48:02.165Z,90.83
2022-12-22T14:50:32.136Z,89.82
2022-12-22T14:53:06.717Z,89.67
2022-12-22T14:55:40.232Z,89.96
2022-12-22T14:58:16.368Z,89.71
2022-12-22T15:00:48.187Z,90.33
2022-12-22T15:03:32.103Z,90.17
2022-12-22T15:06:23.560Z,90.82
2022-12-22T15:08:57.776Z,90.31
2022-12-22T15:11:27.313Z,89.86
2022-12-22T15:13:57.098Z,90.65
2022-12-22T15:16:27.082Z,91.15
2022-12-22T15:18:56.618Z,90.98
2022-12-22T15:21:26.364Z,91.67
2022-12-22T15:23:57.413Z,92.03
2022-12-22T15:26:26.813Z,91.30
2022-12-22T15:28:56.182Z,91.38
2022-12-22T15:31:25.932Z,90.93
2022-12-22T15:33:56.958Z,90.32
2022-12-22T15:36:26.405Z,90.61
2022-12-22T15:38:56.992Z,90.90
2022-12-22T15:41:26.863Z,90.09
2022-12-22T15:43:58.169Z,90.20
2022-12-22T15:46:28.546Z,91.45
2022-12-22T15:48:57.999Z,91.10
2022-12-22T15:51:29.997Z,90.75
2022-12-22T15:54:00.906Z,91.21
2022-12-22T15:56:33.728Z,90.88
2022-12-22T15:59:03.457Z,91.56
2022-12-22T16:01:33.095Z,92.06
2022-12-22T16:04:02.532Z,91.53
2022-12-22T16:06:32.959Z,90.48
2022-12-22T16:09:06.844Z,90.15
2022-12-22T16:11:36.434Z,90.75
2022-12-22T16:14:06.321Z,90.36
2022-12-22T16:16:35.804Z,91.46
2022-12-22T16:19:05.212Z,91.48
2022-12-22T16:21:35.371Z,90.35
2022-12-22T16:24:07.452Z,91.39
2022-12-22T16:26:38.130Z,91.18
2022-12-22T16:29:10.800Z,91.37
2022-12-22T16:31:40.226Z,90.68
2022-12-22T16:34:12.257Z,90.03
2022-12-22T16:36:42.001Z,90.55
2022-12-22T16:39:12.548Z,90.01
2022-12-22T16:41:42.236Z,89.56
2022-12-22T16:44:11.861Z,89.97
2022-12-22T16:46:41.326Z,89.98
2022-12-22T16:49:11.279Z,89.77
2022-12-22T16:51:47.519Z,88.98
2022-12-22T16:54:18.351Z,89.17
2022-12-22T16:56:50.777Z,88.76
2022-12-22T16:59:20.164Z,88.13
2022-12-22T17:01:53.029Z,88.04
2022-12-22T17:04:26.040Z,87.84
2022-12-22T17:06:56.606Z,87.97
2022-12-22T17:09:31.826Z,87.86
2022-12-22T17:12:01.916Z,87.78
2022-12-22T17:17:07.961Z,88.70
2022-12-22T17:19:37.091Z,89.15
2022-12-22T17:22:06.627Z,88.27
2022-12-22T17:24:37.404Z,88.00
2022-12-22T17:27:09.150Z,88.04
2022-12-22T17:29:38.667Z,87.64
2022-12-22T17:32:10.077Z,87.30
2022-12-22T17:34:39.329Z,87.99
2022-12-22T17:37:15.807Z,88.44
2022-12-22T17:39:48.512Z,89.16
2022-12-22T17:42:22.250Z,89.14
2022-12-22T17:44:52.638Z,88.88
2022-12-22T17:47:31.163Z,88.61
2022-12-22T17:50:01.761Z,88.72
2022-12-22T17:52:35.732Z,87.72
2022-12-22T17:55:07.335Z,87.24
2022-12-22T17:57:37.880Z,87.57
2022-12-22T18:00:18.432Z,86.92
2022-12-22T18:02:48.536Z,86.91
2022-12-22T18:05:20.146Z,87.58
2022-12-22T18:07:50.602Z,88.09
2022-12-22T18:10:29.854Z,87.49
2022-12-22T18:13:01.042Z,87.46
2022-12-22T18:15:32.188Z,87.09
2022-12-22T18:18:01.774Z,87.58
2022-12-22T18:20:33.564Z,87.15
2022-12-22T18:23:04.519Z,87.86
2022-12-22T18:25:35.804Z,86.81
2022-12-22T18:28:05.405Z,85.99
2022-12-22T18:30:34.943Z,87.32
2022-12-22T18:33:04.404Z,87.58
2022-12-22T18:35:35.158Z,87.59
2022-12-22T18:38:05.535Z,87.99
2022-12-22T18:40:39.237Z,87.35
2022-12-22T18:43:14.045Z,87.24
2022-12-22T18:45:43.158Z,87.99
2022-12-22T18:48:12.773Z,87.85
2022-12-22T18:50:42.601Z,87.05
2022-12-22T18:53:23.258Z,87.02
2022-12-22T18:55:54.678Z,87.17
2022-12-22T18:58:24.706Z,87.52
2022-12-22T19:00:54.908Z,87.81
2022-12-22T19:03:29.421Z,86.82
2022-12-22T19:05:59.458Z,88.16
2022-12-22T19:08:31.437Z,88.39
2022-12-22T19:11:07.810Z,87.51
2022-12-22T19:13:44.301Z,87.63
2022-12-22T19:16:16.360Z,87.78
2022-12-22T19:18:48.508Z,86.86
2022-12-22T19:21:19.647Z,86.92
2022-12-22T19:23:49.297Z,87.81
2022-12-22T19:26:23.771Z,87.58
2022-12-22T19:28:55.443Z,87.99
2022-12-22T19:31:26.768Z,88.14
2022-12-22T19:33:59.419Z,87.92
2022-12-22T19:36:30.230Z,88.14
2022-12-22T19:39:04.501Z,88.82
2022-12-22T19:41:43.053Z,88.15
2022-12-22T19:44:19.521Z,87.62
2022-12-22T19:46:51.445Z,87.00
2022-12-22T19:49:22.611Z,86.84
2022-12-22T19:51:54.896Z,87.67
2022-12-22T19:54:26.628Z,87.69
2022-12-22T19:56:58.403Z,88.34
2022-12-22T19:59:38.131Z,88.14
2022-12-22T20:02:26.605Z,88.05
2022-12-22T20:04:57.128Z,88.04
2022-12-22T20:07:28.444Z,87.46
2022-12-22T20:09:57.989Z,88.36
2022-12-22T20:12:31.805Z,88.44
2022-12-22T20:15:03.041Z,87.25
2022-12-22T20:17:33.016Z,86.08
2022-12-22T20:20:02.836Z,86.24
2022-12-22T20:22:33.149Z,86.27
2022-12-22T20:25:03.297Z,86.79
2022-12-22T20:27:36.408Z,86.74
2022-12-22T20:30:06.896Z,87.11
2022-12-22T20:32:36.287Z,87.24
2022-12-22T20:35:08.186Z,89.83
2022-12-22T20:37:37.816Z,89.35
2022-12-22T20:40:20.755Z,88.50
2022-12-22T20:42:54.264Z,88.63
2022-12-22T20:45:24.413Z,88.99
2022-12-22T20:47:58.477Z,88.87
2022-12-22T20:50:30.379Z,88.69
2022-12-22T20:52:59.915Z,88.63
2022-12-22T20:55:30.219Z,88.24
2022-12-22T20:58:02.284Z,87.30
2022-12-22T21:00:31.937Z,88.38
2022-12-22T21:03:01.254Z,88.27
2022-12-22T21:05:31.334Z,87.70
2022-12-22T21:08:00.605Z,88.56
2022-12-22T21:10:30.307Z,88.55
2022-12-22T21:13:00.915Z,89.53
2022-12-22T21:15:31.500Z,90.17
2022-12-22T21:18:01.130Z,90.33
2022-12-22T21:20:32.480Z,90.39
2022-12-22T21:23:01.727Z,90.48
2022-12-22T21:25:31.213Z,90.40
2022-12-22T21:28:02.563Z,90.03
2022-12-22T21:30:32.122Z,90.00
2022-12-22T21:33:01.668Z,89.87
2022-12-22T21:35:36.715Z,89.73
2022-12-22T21:38:06.864Z,90.09
2022-12-22T21:40:36.569Z,90.61
2022-12-22T21:43:07.230Z,90.68
2022-12-22T21:45:42.526Z,91.60
2022-12-22T21:48:14.364Z,90.82
2022-12-22T21:50:45.453Z,89.92
2022-12-22T21:53:21.511Z,90.52
2022-12-22T21:55:51.731Z,89.95
2022-12-22T21:58:22.603Z,90.67
2022-12-22T22:00:52.103Z,89.88
2022-12-22T22:03:21.315Z,90.37
2022-12-22T22:05:51.978Z,90.27
2022-12-22T22:08:21.275Z,90.57
2022-12-22T22:10:51.076Z,90.28
2022-12-22T22:13:21.591Z,90.75
2022-12-22T22:15:51.192Z,90.59
2022-12-22T22:18:21.765Z,90.58
2022-12-22T22:20:51.575Z,90.06
2022-12-22T22:23:20.715Z,90.89
2022-12-22T22:25:57.199Z,90.14
2022-12-22T22:28:28.063Z,89.26
2022-12-22T22:30:57.740Z,89.13
2022-12-22T22:33:27.104Z,89.75
2022-12-22T22:36:02.130Z,89.20
2022-12-22T22:38:35.043Z,89.05
2022-12-22T22:41:04.928Z,89.43
2022-12-22T22:43:35.503Z,88.08
2022-12-22T22:46:05.302Z,87.65
2022-12-22T22:48:34.645Z,87.87
2022-12-22T22:51:04.028Z,88.16
2022-12-22T22:53:33.338Z,87.06
2022-12-22T22:56:03.968Z,87.04
2022-12-22T22:58:34.384Z,87.01
2022-12-22T23:01:08.229Z,86.45
2022-12-22T23:03:38.475Z,86.43
2022-12-22T23:06:09.621Z,86.10
2022-12-22T23:08:38.824Z,85.97
2022-12-22T23:11:13.549Z,85.21
2022-12-22T23:13:43.661Z,85.48
2022-12-22T23:16:14.954Z,84.60
2022-12-22T23:18:44.274Z,82.70
2022-12-22T23:21:14.299Z,82.00
2022-12-22T23:23:43.543Z,81.68
2022-12-22T23:26:13.018Z,81.33
2022-12-22T23:28:42.107Z,80.83
2022-12-22T23:31:13.912Z,80.52
2022-12-22T23:33:43.059Z,79.61
2022-12-22T23:36:12.540Z,79.76
2022-12-22T23:38:41.945Z,79.07
2022-12-22T23:41:13.970Z,79.14
2022-12-22T23:43:43.038Z,79.58
2022-12-22T23:46:15.981Z,79.65
2022-12-22T23:48:45.514Z,79.42
2022-12-22T23:51:14.926Z,79.43
2022-12-22T23:53:43.954Z,80.17
2022-12-22T23:56:13.469Z,80.71
2022-12-22T23:58:42.838Z,80.70
